Time;durP1;ratioP1;P1;durP2;ratioP2;P2;SDS_P1;SDS_P2;PMS_P1;PMS_P2;Temp;Humidity;BMP_temperature;BMP_pressure;BME280_temperature;BME280_humidity;BME280_pressure;Samples;Min_cycle;Max_cycle;Signal;HPM_P1;HPM_P2
2023/09/05 00:04:56;;;;;;;0.70;0.70;;;;;;;21.12;61.54;96989.97;10455001;28;20043;-26
2023/09/05 00:09:58;;;;;;;0.63;0.63;;;;;;;21.07;61.45;96977.28;10456106;28;20036;-27
2023/09/05 00:14:58;;;;;;;0.60;0.60;;;;;;;21.04;61.59;96969.66;10455059;28;20053;-26
2023/09/05 00:19:59;;;;;;;0.40;0.40;;;;;;;21.03;61.44;96970.53;10462897;28;20052;-26
2023/09/05 00:24:59;;;;;;;0.60;0.50;;;;;;;21.00;60.93;96965.47;10467154;28;20093;-26
2023/09/05 00:30:00;;;;;;;0.40;0.40;;;;;;;21.00;60.97;96959.50;10464451;28;20035;-26
2023/09/05 00:35:02;;;;;;;0.50;0.50;;;;;;;20.95;60.91;96957.00;10453860;28;20029;-25
2023/09/05 00:40:04;;;;;;;0.70;0.70;;;;;;;21.00;60.82;96968.00;10471084;28;20049;-26
2023/09/05 00:45:06;;;;;;;0.57;0.50;;;;;;;20.97;60.58;96955.28;10477078;28;20474;-26
2023/09/05 00:50:07;;;;;;;0.60;0.60;;;;;;;20.96;60.58;96953.59;10471757;28;20040;-27
2023/09/05 00:55:07;;;;;;;0.85;0.60;;;;;;;20.96;60.48;96951.06;10463105;28;20110;-26
2023/09/05 01:00:11;;;;;;;0.57;0.57;;;;;;;20.94;60.35;96945.13;10478380;28;20106;-25
2023/09/05 01:05:13;;;;;;;0.90;0.65;;;;;;;20.94;60.21;96941.72;10461627;28;20033;-26
2023/09/05 01:10:31;;;;;;;1.13;0.68;;;;;;;20.89;60.07;96929.03;10460692;28;20024;-26
2023/09/05 01:15:31;;;;;;;1.00;0.90;;;;;;;20.95;60.08;96941.72;10452471;28;20040;-26
2023/09/05 01:20:52;;;;;;;1.40;0.80;;;;;;;20.96;60.08;96943.41;10460063;28;20037;-26
2023/09/05 01:25:53;;;;;;;1.85;1.15;;;;;;;20.92;60.07;96946.84;10467170;28;20067;-26
2023/09/05 01:30:54;;;;;;;0.90;0.80;;;;;;;20.94;59.90;96942.59;10467637;28;20032;-26
2023/09/05 01:35:54;;;;;;;1.25;0.82;;;;;;;20.92;59.87;96946.84;10456366;28;20102;-26
2023/09/05 01:40:55;;;;;;;0.80;0.80;;;;;;;20.94;59.81;96942.59;10465926;28;20067;-26
2023/09/05 01:45:56;;;;;;;1.83;1.20;;;;;;;20.93;59.76;96938.34;10460783;28;20112;-26
2023/09/05 01:50:57;;;;;;;0.70;0.70;;;;;;;20.93;59.59;96943.44;10453537;28;20112;-26
2023/09/05 01:56:00;;;;;;;1.10;1.00;;;;;;;20.95;59.46;96931.53;10477121;28;20035;-26
2023/09/05 02:01:04;;;;;;;0.70;0.70;;;;;;;20.93;59.73;96933.25;10472176;28;20039;-26
2023/09/05 02:06:04;;;;;;;1.30;1.20;;;;;;;20.97;59.76;96929.00;10458021;28;20041;-26
2023/09/05 02:11:05;;;;;;;0.98;0.90;;;;;;;20.95;59.49;96921.38;10457330;28;20036;-26
2023/09/05 02:16:06;;;;;;;1.00;0.90;;;;;;;20.94;59.43;96912.03;10457630;28;20444;-26
2023/09/05 02:21:07;;;;;;;1.00;0.93;;;;;;;21.00;59.69;96918.78;10449874;28;20291;-26
2023/09/05 02:26:08;;;;;;;1.10;1.00;;;;;;;20.98;59.47;96923.88;10453368;28;20068;-26
2023/09/05 02:31:09;;;;;;;1.10;1.00;;;;;;;20.99;59.40;96923.00;10464930;28;20032;-26
2023/09/05 02:36:18;;;;;;;1.15;1.05;;;;;;;20.98;59.17;96928.13;10473444;28;20033;-25
2023/09/05 02:41:18;;;;;;;1.00;0.90;;;;;;;20.95;59.56;96936.63;10479279;28;20494;-26
2023/09/05 02:46:20;;;;;;;1.00;0.80;;;;;;;20.96;59.43;96920.50;10464062;28;20028;-26
2023/09/05 02:51:20;;;;;;;1.20;1.10;;;;;;;21.01;59.09;96944.25;10464634;28;20025;-26
2023/09/05 02:56:20;;;;;;;1.30;1.17;;;;;;;20.97;59.31;96944.28;10459770;28;20116;-26
2023/09/05 03:01:21;;;;;;;0.93;0.83;;;;;;;20.99;59.33;96943.38;10463066;28;20066;-26
2023/09/05 03:06:21;;;;;;;1.05;0.95;;;;;;;20.94;59.50;96941.72;10464818;28;20024;-26
2023/09/05 03:11:22;;;;;;;3.40;0.93;;;;;;;20.91;59.25;96945.16;10466588;28;20025;-26
2023/09/05 03:16:23;;;;;;;1.05;0.95;;;;;;;20.93;59.29;96953.63;10491908;28;20047;-26
2023/09/05 03:21:27;;;;;;;1.17;1.08;;;;;;;20.90;59.28;96958.72;10460796;28;20798;-25
2023/09/05 03:26:29;;;;;;;1.35;1.08;;;;;;;20.92;59.10;96953.63;10482445;28;20070;-25
2023/09/05 03:31:29;;;;;;;1.40;1.30;;;;;;;20.87;58.90;96956.19;10470554;28;20498;-26
2023/09/05 03:36:32;;;;;;;1.67;1.02;;;;;;;20.93;58.89;96957.84;10465053;28;20049;-26
2023/09/05 03:41:32;;;;;;;1.25;1.15;;;;;;;20.91;59.07;96952.78;10464954;28;20487;-26
2023/09/05 03:46:33;;;;;;;1.40;1.20;;;;;;;20.92;58.86;96946.00;10463465;28;20033;-26
2023/09/05 03:51:33;;;;;;;1.27;1.17;;;;;;;20.89;58.92;96946.84;10463622;28;20033;-26
2023/09/05 03:56:33;;;;;;;1.73;1.17;;;;;;;20.89;58.73;96944.31;10464529;28;20578;-26
2023/09/05 04:01:34;;;;;;;1.20;1.10;;;;;;;20.91;58.58;96950.25;10472332;28;20315;-25
2023/09/05 04:06:36;;;;;;;1.30;1.20;;;;;;;20.90;58.57;96952.78;10477940;28;20037;-25
2023/09/05 04:11:37;;;;;;;2.83;1.10;;;;;;;20.75;58.61;96956.25;10467523;28;20029;-26
2023/09/05 04:16:37;;;;;;;3.58;1.02;;;;;;;20.43;57.30;96968.25;10469112;28;20046;-26
2023/09/05 04:21:39;;;;;;;2.37;1.20;;;;;;;20.38;56.72;96980.97;10471408;28;20025;-26
2023/09/05 04:26:39;;;;;;;1.90;1.02;;;;;;;20.20;56.27;96987.00;10475062;28;20448;-26
2023/09/05 04:31:39;;;;;;;1.50;1.00;;;;;;;20.16;55.53;97000.53;10472245;28;20024;-25
2023/09/05 04:36:40;;;;;;;1.90;1.33;;;;;;;20.16;55.69;97004.75;10467690;28;20292;-25
2023/09/05 04:41:40;;;;;;;1.43;0.93;;;;;;;20.13;56.14;97007.31;10471393;28;20040;-25
2023/09/05 04:46:45;;;;;;;2.97;1.27;;;;;;;20.09;56.46;97028.53;10467337;28;20536;-26
2023/09/05 04:51:45;;;;;;;2.85;0.90;;;;;;;20.03;56.68;97025.94;10470881;28;20060;-26
2023/09/05 04:56:45;;;;;;;1.60;1.30;;;;;;;20.05;56.44;97029.38;10457164;28;20056;-25
2023/09/05 05:01:46;;;;;;;1.50;1.20;;;;;;;19.98;56.78;97040.34;10462570;28;20045;-25
2023/09/05 05:06:46;;;;;;;1.40;1.20;;;;;;;20.18;56.90;97046.31;10460538;28;20081;-26
2023/09/05 05:11:46;;;;;;;2.07;1.30;;;;;;;20.44;56.61;97063.19;10468036;28;20024;-26
2023/09/05 05:16:49;;;;;;;3.00;1.33;;;;;;;20.49;57.12;97057.28;10459793;28;20062;-26
2023/09/05 05:21:50;;;;;;;2.13;1.20;;;;;;;20.38;57.44;97067.44;10453078;28;20029;-26
2023/09/05 05:26:50;;;;;;;2.60;1.27;;;;;;;20.33;57.56;97069.16;10451656;28;20108;-26
2023/09/05 05:31:51;;;;;;;3.58;1.10;;;;;;;20.32;57.31;97062.38;10455303;28;20075;-26
2023/09/05 05:36:51;;;;;;;2.87;1.13;;;;;;;20.42;57.36;97067.44;10451706;28;20041;-26
2023/09/05 05:41:51;;;;;;;1.50;1.17;;;;;;;20.42;57.69;97069.16;10455585;28;20029;-26
2023/09/05 05:46:56;;;;;;;1.57;1.27;;;;;;;20.53;57.50;97069.13;10449908;28;20096;-26
2023/09/05 05:52:00;;;;;;;1.40;1.20;;;;;;;20.62;57.53;97073.34;10450957;28;20029;-26
2023/09/05 05:57:02;;;;;;;1.48;1.10;;;;;;;20.74;57.40;97074.16;10451154;28;20094;-25
2023/09/05 06:02:03;;;;;;;3.88;1.30;;;;;;;20.78;57.39;97065.63;10450462;28;20580;-26
2023/09/05 06:07:03;;;;;;;1.55;1.38;;;;;;;20.70;57.60;97067.38;10451059;28;20025;-26
2023/09/05 06:12:05;;;;;;;2.75;1.10;;;;;;;20.74;57.54;97058.03;10450027;28;20131;-26
2023/09/05 06:17:07;;;;;;;2.13;1.05;;;;;;;20.81;57.36;97052.06;10450511;28;20048;-26
2023/09/05 06:22:07;;;;;;;1.35;1.17;;;;;;;20.84;57.51;97055.44;10449936;28;20111;-26
2023/09/05 06:27:10;;;;;;;1.83;1.10;;;;;;;20.86;57.47;97048.69;10450611;28;20139;-25
2023/09/05 06:32:10;;;;;;;1.17;0.85;;;;;;;20.87;57.48;97042.72;10450082;28;20029;-26
2023/09/05 06:37:10;;;;;;;2.60;1.20;;;;;;;20.88;57.54;97048.69;10449797;28;20045;-26
2023/09/05 06:42:12;;;;;;;1.53;1.13;;;;;;;20.87;57.50;97047.81;10451462;28;20033;-26
2023/09/05 06:47:16;;;;;;;1.20;1.07;;;;;;;20.89;57.88;97052.91;10449156;28;20033;-25
2023/09/05 06:52:16;;;;;;;5.60;1.67;;;;;;;20.90;57.73;97057.97;10449507;28;20027;-26
2023/09/05 06:57:17;;;;;;;1.93;1.30;;;;;;;20.90;57.81;97060.53;10456637;28;20033;-26
2023/09/05 07:02:19;;;;;;;2.17;1.00;;;;;;;20.90;58.00;97060.53;10448814;28;20442;-26
2023/09/05 07:07:20;;;;;;;1.75;1.50;;;;;;;20.92;57.89;97063.06;10449693;28;20041;-26
2023/09/05 07:12:20;;;;;;;3.30;1.20;;;;;;;20.92;57.73;97058.84;10448759;28;20028;-25
2023/09/05 07:17:20;;;;;;;2.53;1.13;;;;;;;20.91;57.90;97062.25;10449767;28;20414;-26
2023/09/05 07:22:22;;;;;;;1.60;1.00;;;;;;;20.92;58.17;97063.94;10449157;28;20455;-26
2023/09/05 07:27:22;;;;;;;1.23;1.00;;;;;;;20.93;57.95;97072.41;10449155;28;20091;-25
2023/09/05 07:32:22;;;;;;;2.00;1.00;;;;;;;20.93;58.23;97065.63;10449275;28;20071;-26
2023/09/05 07:37:23;;;;;;;1.10;1.00;;;;;;;20.93;58.37;97068.16;10452028;28;20303;-26
2023/09/05 07:42:23;;;;;;;1.17;1.07;;;;;;;20.93;58.24;97063.06;10448832;28;20076;-26
2023/09/05 07:47:24;;;;;;;1.52;1.13;;;;;;;20.92;58.29;97053.75;10448709;28;20028;-25
2023/09/05 07:52:24;;;;;;;1.60;1.03;;;;;;;20.93;58.33;97060.53;10454783;28;20029;-27
2023/09/05 07:57:24;;;;;;;1.70;1.10;;;;;;;20.92;58.34;97061.38;10456207;28;20029;-26
2023/09/05 08:02:25;;;;;;;1.50;1.10;;;;;;;20.93;58.47;97060.53;10455803;28;20029;-26
2023/09/05 08:07:25;;;;;;;2.13;1.47;;;;;;;20.93;58.44;97057.97;10455687;28;20033;-26
2023/09/05 08:12:28;;;;;;;2.60;1.30;;;;;;;20.90;58.41;97049.50;10455473;28;20032;-26
2023/09/05 08:17:30;;;;;;;1.70;1.17;;;;;;;20.95;58.59;97063.91;10455131;28;20079;-26
2023/09/05 08:22:32;;;;;;;1.20;1.10;;;;;;;20.94;58.37;97057.13;10460595;28;20105;-26
2023/09/05 08:27:32;;;;;;;2.08;1.23;;;;;;;20.96;58.43;97060.50;10454972;28;20037;-26
2023/09/05 08:32:33;;;;;;;2.83;1.90;;;;;;;20.94;58.63;97051.19;10454697;28;20039;-25
2023/09/05 08:37:33;;;;;;;3.67;1.40;;;;;;;20.96;58.63;97050.31;10454624;28;20295;-26
2023/09/05 08:42:37;;;;;;;2.77;1.40;;;;;;;20.96;58.67;97041.84;10454178;28;20459;-26
2023/09/05 08:47:38;;;;;;;1.25;1.15;;;;;;;20.95;58.69;97033.38;10454072;28;20291;-25
2023/09/05 08:52:39;;;;;;;1.63;1.45;;;;;;;20.97;58.59;97041.84;10453751;28;20087;-25
2023/09/05 08:57:44;;;;;;;2.20;1.58;;;;;;;20.94;58.58;97041.84;10455096;28;20110;-26
2023/09/05 09:02:44;;;;;;;2.58;0.98;;;;;;;20.97;58.54;97046.91;10453074;28;20397;-25
2023/09/05 09:07:45;;;;;;;1.48;1.23;;;;;;;20.97;58.75;97034.19;10453698;28;20039;-26
2023/09/05 09:12:45;;;;;;;1.70;1.27;;;;;;;20.99;58.80;97046.94;10453007;28;20029;-26
2023/09/05 09:17:48;;;;;;;1.90;1.20;;;;;;;20.96;59.02;97040.13;10454005;28;20046;-26
2023/09/05 09:22:50;;;;;;;2.25;1.45;;;;;;;20.99;58.99;97035.03;10460596;28;20124;-26
2023/09/05 09:27:54;;;;;;;2.13;1.52;;;;;;;20.99;58.64;97037.56;10453328;28;20090;-26
2023/09/05 09:32:55;;;;;;;2.28;1.50;;;;;;;20.99;59.07;97027.38;10452172;28;20028;-26
2023/09/05 09:37:55;;;;;;;1.48;1.38;;;;;;;20.99;58.95;97029.94;10452267;28;20063;-26
2023/09/05 09:42:56;;;;;;;2.33;1.57;;;;;;;21.00;58.91;97021.47;10456055;28;20461;-24
2023/09/05 09:47:58;;;;;;;1.58;1.40;;;;;;;21.00;58.96;97015.53;10451698;28;20402;-26
2023/09/05 09:53:00;;;;;;;2.38;1.38;;;;;;;21.00;58.98;97015.53;10451059;28;20620;-25
2023/09/05 09:58:10;;;;;;;2.17;1.75;;;;;;;20.96;59.12;97001.97;10451617;28;20035;-26
2023/09/05 10:03:13;;;;;;;2.90;1.40;;;;;;;21.00;59.00;97000.25;10450331;28;20041;-26
2023/09/05 10:08:14;;;;;;;1.45;1.30;;;;;;;21.00;59.17;97006.19;10451211;28;20036;-26
2023/09/05 10:13:15;;;;;;;2.08;1.55;;;;;;;21.00;59.32;97002.78;10453332;28;20026;-26
2023/09/05 10:18:16;;;;;;;1.60;1.40;;;;;;;21.00;59.09;96996.00;10451042;28;20037;-25
2023/09/05 10:23:18;;;;;;;2.88;1.92;;;;;;;21.00;59.19;96996.00;10450478;28;20036;-26
2023/09/05 10:28:18;;;;;;;2.55;1.58;;;;;;;21.02;59.27;97001.94;10452571;28;20033;-26
2023/09/05 10:33:31;;;;;;;2.43;1.73;;;;;;;20.97;59.12;96990.91;10451856;28;20047;-26
2023/09/05 10:38:36;;;;;;;1.73;1.60;;;;;;;21.04;59.32;97002.75;10452528;28;20037;-26
2023/09/05 10:43:53;;;;;;;2.90;1.85;;;;;;;20.97;59.22;96998.56;10455194;28;20041;-27
2023/09/05 10:49:10;;;;;;;3.38;1.58;;;;;;;21.03;59.86;97006.16;10455062;28;20032;-26
2023/09/05 10:54:30;;;;;;;2.22;1.33;;;;;;;21.02;59.14;97001.06;10458454;28;20483;-26
2023/09/05 10:59:30;;;;;;;2.00;1.58;;;;;;;21.05;60.78;96996.00;10457565;28;20044;-26
2023/09/05 11:04:31;;;;;;;5.63;1.53;;;;;;;21.03;59.45;96988.34;10449737;28;20453;-26
2023/09/05 11:09:43;;;;;;;6.43;1.60;;;;;;;20.99;59.39;96988.38;10453449;28;20348;-27
2023/09/05 11:14:43;;;;;;;3.55;1.67;;;;;;;21.02;59.59;96986.66;10449291;28;20091;-26
2023/09/05 11:19:47;;;;;;;2.83;2.05;;;;;;;20.98;59.41;96966.31;10449837;28;20379;-26
2023/09/05 11:24:50;;;;;;;5.20;2.38;;;;;;;21.04;60.13;96984.94;10453282;28;20037;-26
2023/09/05 11:29:55;;;;;;;1.50;1.40;;;;;;;21.02;59.79;96971.38;10458868;28;20032;-26
2023/09/05 11:34:56;;;;;;;1.50;1.40;;;;;;;21.04;59.45;96963.75;10458366;28;20024;-27
2023/09/05 11:40:09;;;;;;;7.78;2.53;;;;;;;21.03;59.63;96955.25;10456792;28;20025;-27
2023/09/05 11:45:17;;;;;;;16.98;4.13;;;;;;;21.05;59.43;96945.91;10455446;28;20035;-25
2023/09/05 11:50:18;;;;;;;10.65;3.33;;;;;;;21.06;59.64;96936.56;10456625;28;20060;-26
2023/09/05 11:55:23;;;;;;;12.68;3.20;;;;;;;21.05;59.64;96922.97;10457415;28;20028;-26
2023/09/05 12:00:25;;;;;;;7.30;3.10;;;;;;;21.07;59.49;96910.25;10455794;28;20039;-26
2023/09/05 12:05:26;;;;;;;5.60;2.80;;;;;;;21.02;59.59;96894.16;10455539;28;20037;-26
2023/09/05 12:10:38;;;;;;;3.20;2.63;;;;;;;21.08;59.59;96889.03;10455280;28;20033;-26
2023/09/05 12:15:38;;;;;;;5.72;3.15;;;;;;;21.08;59.61;96883.94;10458587;28;20028;-25
2023/09/05 12:20:39;;;;;;;4.80;2.90;;;;;;;21.08;59.86;96892.44;10455661;28;20460;-26
2023/09/05 12:25:46;;;;;;;2.88;2.58;;;;;;;21.08;59.81;96884.78;10455389;28;20032;-26
2023/09/05 12:30:48;;;;;;;3.42;2.72;;;;;;;21.09;60.01;96881.38;10464807;28;20032;-26
2023/09/05 12:35:49;;;;;;;5.80;2.78;;;;;;;21.12;60.49;96885.59;10454073;28;20663;-26
2023/09/05 12:40:49;;;;;;;5.60;2.50;;;;;;;21.11;59.75;96872.03;10457432;28;20064;-26
2023/09/05 12:45:50;;;;;;;4.07;2.97;;;;;;;21.11;60.39;96869.47;10453692;28;20093;-26
2023/09/05 12:50:51;;;;;;;3.45;2.53;;;;;;;21.11;60.12;96866.06;10453700;28;20063;-26
2023/09/05 12:55:51;;;;;;;3.78;2.63;;;;;;;21.08;59.96;96856.78;10454216;28;20029;-26
2023/09/05 13:00:52;;;;;;;3.97;2.73;;;;;;;21.10;59.97;96861.84;10453156;28;20033;-26
2023/09/05 13:05:52;;;;;;;3.27;2.63;;;;;;;21.11;60.15;96850.81;10453579;28;20114;-25
2023/09/05 13:10:53;;;;;;;4.88;2.97;;;;;;;21.11;59.84;96855.91;10452653;28;20037;-26
2023/09/05 13:15:54;;;;;;;3.70;2.45;;;;;;;21.09;59.96;96848.28;10453109;28;20035;-25
2023/09/05 13:20:56;;;;;;;4.40;2.73;;;;;;;21.11;60.08;96845.72;10453523;28;20035;-26
2023/09/05 13:25:59;;;;;;;3.00;2.70;;;;;;;21.11;59.93;96846.56;10457879;28;20710;-26
2023/09/05 13:31:00;;;;;;;2.65;2.15;;;;;;;21.11;59.81;96845.72;10451266;28;20051;-26
2023/09/05 13:36:00;;;;;;;2.83;2.53;;;;;;;21.09;60.02;96835.56;10452883;28;20063;-26
2023/09/05 13:41:00;;;;;;;8.53;2.20;;;;;;;21.10;60.26;96824.50;10451887;28;20417;-26
2023/09/05 13:46:01;;;;;;;5.10;2.60;;;;;;;21.10;60.04;96824.50;10451302;28;20110;-26
2023/09/05 13:51:01;;;;;;;3.38;2.38;;;;;;;21.10;60.18;96816.88;10450957;28;20037;-25
2023/09/05 13:56:02;;;;;;;2.70;2.50;;;;;;;21.11;60.13;96816.03;10456192;28;20031;-26
2023/09/05 14:01:03;;;;;;;2.50;2.30;;;;;;;21.11;60.18;96823.66;10453422;28;20383;-26
2023/09/05 14:06:03;;;;;;;2.87;2.57;;;;;;;21.12;60.29;96821.94;10451564;28;20033;-26
2023/09/05 14:11:03;;;;;;;3.73;2.47;;;;;;;21.11;60.34;96818.56;10450632;28;20634;-26
2023/09/05 14:16:04;;;;;;;2.67;2.20;;;;;;;21.11;60.23;96802.44;10450975;28;20287;-25
2023/09/05 14:21:06;;;;;;;2.22;2.03;;;;;;;21.11;60.13;96815.16;10452744;28;20029;-25
2023/09/05 14:26:07;;;;;;;3.13;2.33;;;;;;;21.11;60.18;96797.34;10456383;28;20043;-26
2023/09/05 14:31:08;;;;;;;2.33;2.13;;;;;;;21.11;60.15;96792.25;10449767;28;20029;-26
2023/09/05 14:36:10;;;;;;;2.10;1.97;;;;;;;21.11;60.40;96787.16;10450217;28;20044;-26
2023/09/05 14:41:12;;;;;;;2.65;2.40;;;;;;;21.08;60.31;96785.50;10453110;28;20036;-26
2023/09/05 14:46:13;;;;;;;3.13;2.60;;;;;;;21.10;60.25;96783.78;10449769;28;20040;-26
2023/09/05 14:51:13;;;;;;;2.63;2.30;;;;;;;21.10;60.17;96788.88;10449549;28;20044;-27
2023/09/05 14:56:13;;;;;;;3.13;2.60;;;;;;;21.12;60.41;96784.59;10452012;28;20291;-26
2023/09/05 15:01:14;;;;;;;2.70;2.50;;;;;;;21.11;60.31;96782.91;10455977;28;20051;-25
2023/09/05 15:06:14;;;;;;;2.93;2.57;;;;;;;21.11;60.44;96777.84;10458030;28;20115;-25
2023/09/05 15:11:15;;;;;;;3.40;2.42;;;;;;;21.13;60.61;96782.91;10462675;28;20049;-25
2023/09/05 15:16:18;;;;;;;2.40;2.20;;;;;;;21.13;60.43;96782.91;10458241;28;20044;-26
2023/09/05 15:21:18;;;;;;;2.97;2.20;;;;;;;21.12;61.19;96776.97;10471275;28;20031;-25
2023/09/05 15:26:18;;;;;;;5.17;1.80;;;;;;;21.09;62.11;96766.81;10457330;28;20040;-26
2023/09/05 15:31:19;;;;;;;4.20;1.53;;;;;;;21.08;61.50;96767.69;10461233;28;20079;-25
2023/09/05 15:36:19;;;;;;;7.90;2.60;;;;;;;21.21;63.62;96781.97;10457143;28;20756;-26
2023/09/05 15:41:20;;;;;;;7.87;1.90;;;;;;;21.17;62.14;96780.31;10459178;28;20040;-25
2023/09/05 15:46:20;;;;;;;6.95;2.75;;;;;;;21.15;61.72;96771.84;10459988;28;20533;-26
2023/09/05 15:51:21;;;;;;;5.38;2.22;;;;;;;21.13;60.62;96773.56;10469126;28;20041;-26
2023/09/05 15:56:22;;;;;;;4.15;2.58;;;;;;;21.14;60.80;96787.16;10470236;28;20045;-26
2023/09/05 16:01:22;;;;;;;9.70;2.73;;;;;;;21.12;60.91;96782.06;10471154;28;20028;-26
2023/09/05 16:06:23;;;;;;;3.60;2.50;;;;;;;21.13;61.26;96783.75;10480071;28;20089;-26
2023/09/05 16:11:24;;;;;;;8.67;2.53;;;;;;;21.13;60.70;96788.84;10467542;28;20291;-26
2023/09/05 16:16:25;;;;;;;6.47;2.88;;;;;;;21.13;60.61;96791.38;10465935;28;20301;-26
2023/09/05 16:21:27;;;;;;;6.97;2.63;;;;;;;21.14;63.24;96780.34;10465911;28;20037;-26
2023/09/05 16:26:30;;;;;;;5.50;2.58;;;;;;;21.21;62.17;96787.06;10456301;28;20104;-26
2023/09/05 16:31:30;;;;;;;9.40;5.53;;;;;;;21.19;62.03;96788.78;10469811;28;20029;-26
2023/09/05 16:36:31;;;;;;;6.67;3.77;;;;;;;21.22;61.92;96786.19;10454571;28;20255;-27
2023/09/05 16:41:32;;;;;;;8.68;4.22;;;;;;;21.22;61.87;96772.66;10455240;28;20041;-26
2023/09/05 16:46:32;;;;;;;7.32;3.60;;;;;;;21.32;61.80;96787.78;10457404;28;20048;-26
2023/09/05 16:51:35;;;;;;;7.43;3.90;;;;;;;21.36;62.10;96792.00;10457270;28;20036;-25
2023/09/05 16:56:36;;;;;;;7.13;3.58;;;;;;;21.43;61.96;96783.44;10461276;28;20033;-26
2023/09/05 17:01:36;;;;;;;7.93;3.20;;;;;;;21.51;63.19;96791.84;10458299;28;20430;-26
2023/09/05 17:06:37;;;;;;;5.05;3.40;;;;;;;21.58;63.31;96793.47;10460429;28;20080;-26
2023/09/05 17:11:37;;;;;;;7.07;3.05;;;;;;;21.64;62.88;96798.50;10464094;28;20024;-26
2023/09/05 17:16:37;;;;;;;7.10;3.53;;;;;;;21.69;62.54;96803.56;10470439;28;20047;-26
2023/09/05 17:21:39;;;;;;;7.70;3.37;;;;;;;21.70;62.67;96797.59;10461720;28;20116;-26
2023/09/05 17:26:40;;;;;;;5.10;2.88;;;;;;;21.71;62.64;96802.69;10456049;28;20041;-26
2023/09/05 17:31:41;;;;;;;8.90;3.30;;;;;;;21.70;62.73;96806.09;10454438;28;20398;-26
2023/09/05 17:36:42;;;;;;;4.72;3.38;;;;;;;21.72;63.00;96812.03;10451698;28;20033;-26
2023/09/05 17:41:42;;;;;;;5.17;2.80;;;;;;;21.72;62.89;96812.03;10451047;28;20051;-26
2023/09/05 17:46:42;;;;;;;8.70;2.93;;;;;;;21.71;66.45;96824.81;10450747;28;20110;-26
2023/09/05 17:51:43;;;;;;;8.07;3.17;;;;;;;21.74;64.90;96828.13;10451062;28;20111;-27
2023/09/05 17:56:43;;;;;;;4.57;2.80;;;;;;;21.73;63.12;96834.09;10451510;28;20126;-26
2023/09/05 18:01:43;;;;;;;5.67;2.97;;;;;;;21.72;63.72;96842.59;10451324;28;20047;-25
2023/09/05 18:06:50;;;;;;;12.40;3.77;;;;;;;21.68;64.23;96846.06;10454135;28;20510;-26
2023/09/05 18:11:50;;;;;;;9.73;3.20;;;;;;;21.67;63.70;96838.41;10450780;28;20035;-26
2023/09/05 18:16:51;;;;;;;8.53;3.10;;;;;;;21.67;63.15;96849.47;10451800;28;20509;-26
2023/09/05 18:21:51;;;;;;;5.20;2.63;;;;;;;21.66;63.13;96852.84;10452979;28;20101;-26
2023/09/05 18:26:51;;;;;;;6.43;2.83;;;;;;;21.64;62.95;96867.28;10454968;28;20333;-26
2023/09/05 18:31:54;;;;;;;6.37;2.63;;;;;;;21.62;62.79;96857.97;10461774;28;20043;-26
2023/09/05 18:36:54;;;;;;;7.45;3.42;;;;;;;21.60;62.92;96868.19;10456200;28;20442;-26
2023/09/05 18:41:55;;;;;;;5.03;2.30;;;;;;;21.58;62.91;96877.56;10453950;28;20116;-26
2023/09/05 18:46:59;;;;;;;4.57;2.63;;;;;;;21.57;63.02;96893.69;10454221;28;20033;-26
2023/09/05 18:52:03;;;;;;;7.40;2.93;;;;;;;21.57;63.11;96901.31;10454833;28;20041;-26
2023/09/05 18:57:03;;;;;;;5.38;2.10;;;;;;;21.55;62.82;96905.59;10449627;28;20043;-26
2023/09/05 19:02:04;;;;;;;5.07;2.47;;;;;;;21.53;62.86;96907.31;10456717;28;20043;-26
2023/09/05 19:07:04;;;;;;;5.93;2.60;;;;;;;21.54;63.12;96919.19;10449256;28;20033;-26
2023/09/05 19:12:06;;;;;;;4.37;2.30;;;;;;;21.51;63.30;96928.56;10454283;28;20287;-26
2023/09/05 19:17:06;;;;;;;5.60;2.53;;;;;;;21.50;63.11;96943.03;10453384;28;20235;-26
2023/09/05 19:22:06;;;;;;;5.70;2.60;;;;;;;21.51;62.74;96943.84;10453726;28;20107;-26
2023/09/05 19:27:09;;;;;;;7.03;2.13;;;;;;;21.50;62.82;96955.78;10451335;28;20287;-27
2023/09/05 19:32:10;;;;;;;4.10;2.30;;;;;;;21.49;62.51;96946.41;10448130;28;20387;-26
2023/09/05 19:37:10;;;;;;;4.47;2.17;;;;;;;21.48;62.93;96942.19;10448890;28;20095;-26
2023/09/05 19:42:11;;;;;;;2.97;2.13;;;;;;;21.48;62.69;96949.81;10452307;28;20106;-26
2023/09/05 19:47:11;;;;;;;5.23;2.63;;;;;;;21.47;62.84;96950.69;10456806;28;20041;-26
2023/09/05 19:52:13;;;;;;;4.30;2.20;;;;;;;21.48;62.55;96957.47;10456097;28;20048;-28
2023/09/05 19:57:13;;;;;;;4.45;2.92;;;;;;;21.47;62.67;96963.41;10456216;28;20280;-27
2023/09/05 20:02:14;;;;;;;2.80;1.60;;;;;;;21.47;62.56;96952.41;10454734;28;20036;-25
2023/09/05 20:07:14;;;;;;;4.27;2.00;;;;;;;21.46;62.56;96956.63;10455778;28;20033;-26
2023/09/05 20:12:14;;;;;;;5.20;1.93;;;;;;;21.46;62.57;96964.28;10460196;28;20029;-26
2023/09/05 20:17:15;;;;;;;4.13;1.75;;;;;;;21.47;62.26;96958.31;10458221;28;20048;-26
2023/09/05 20:22:18;;;;;;;2.13;1.73;;;;;;;21.50;61.85;96968.50;10458787;28;20061;-26
2023/09/05 20:27:18;;;;;;;2.97;1.95;;;;;;;21.50;62.13;96965.97;10455125;28;20044;-26
2023/09/05 20:32:19;;;;;;;2.10;1.73;;;;;;;21.49;61.98;96973.59;10454461;28;20402;-26
2023/09/05 20:37:19;;;;;;;2.50;1.60;;;;;;;21.47;61.99;96971.06;10454661;28;20494;-26
2023/09/05 20:42:19;;;;;;;2.90;1.90;;;;;;;21.46;61.82;96979.56;10453881;28;20414;-26
2023/09/05 20:47:20;;;;;;;3.70;1.90;;;;;;;21.47;61.93;96975.31;10453566;28;20052;-26
2023/09/05 20:52:20;;;;;;;2.17;1.70;;;;;;;21.46;61.72;96974.47;10453498;28;20037;-27
2023/09/05 20:57:20;;;;;;;2.27;1.40;;;;;;;21.46;61.69;96981.28;10453857;28;20055;-26
2023/09/05 21:02:21;;;;;;;4.17;1.80;;;;;;;21.45;61.79;96970.22;10452927;28;20299;-26
2023/09/05 21:07:22;;;;;;;1.97;1.50;;;;;;;21.44;61.61;96966.00;10453729;28;20418;-26
2023/09/05 21:12:22;;;;;;;2.55;1.90;;;;;;;21.45;61.62;96966.81;10453335;28;20555;-26
2023/09/05 21:17:23;;;;;;;2.40;1.70;;;;;;;21.44;61.62;96968.56;10454555;28;20078;-26
2023/09/05 21:22:26;;;;;;;3.00;1.50;;;;;;;21.42;61.58;96954.97;10456380;28;20184;-26
2023/09/05 21:27:27;;;;;;;2.47;1.25;;;;;;;21.45;61.73;96954.09;10451854;28;20557;-25
2023/09/05 21:32:27;;;;;;;2.45;1.60;;;;;;;21.44;61.72;96943.06;10460742;28;20074;-26
2023/09/05 21:37:28;;;;;;;1.60;1.40;;;;;;;21.43;61.70;96951.56;10451816;28;20462;-26
2023/09/05 21:42:28;;;;;;;2.80;1.70;;;;;;;21.44;62.01;96932.03;10451117;28;20490;-26
2023/09/05 21:47:29;;;;;;;8.68;1.52;;;;;;;21.42;61.78;96934.59;10451303;28;20568;-26
2023/09/05 21:52:29;;;;;;;2.97;1.40;;;;;;;21.43;61.99;96936.28;10452059;28;20029;-25
2023/09/05 21:57:29;;;;;;;1.77;1.40;;;;;;;21.45;62.05;96943.91;10454651;28;20041;-26
2023/09/05 22:02:31;;;;;;;2.63;1.50;;;;;;;21.45;61.86;96937.13;10450113;28;20071;-26
2023/09/05 22:07:31;;;;;;;1.52;1.40;;;;;;;21.46;61.78;96920.97;10449949;28;20279;-27
2023/09/05 22:12:32;;;;;;;1.93;1.60;;;;;;;21.45;61.54;96932.03;10448385;28;20430;-25
2023/09/05 22:17:32;;;;;;;2.10;1.90;;;;;;;21.45;61.73;96924.38;10453190;28;20036;-26
2023/09/05 22:22:32;;;;;;;1.47;1.20;;;;;;;21.44;61.58;96932.88;10454657;28;20521;-26
2023/09/05 22:27:34;;;;;;;1.70;1.03;;;;;;;21.44;61.62;96930.34;10453201;28;20498;-26
2023/09/05 22:32:36;;;;;;;2.35;1.40;;;;;;;21.43;61.70;96928.66;10449463;28;20025;-26
2023/09/05 22:37:40;;;;;;;1.40;1.30;;;;;;;21.42;61.78;96921.88;10450859;28;20127;-25
2023/09/05 22:42:41;;;;;;;2.00;1.23;;;;;;;21.43;61.56;96932.88;10450058;28;20383;-26
2023/09/05 22:47:42;;;;;;;1.30;1.20;;;;;;;21.42;61.69;96926.97;10449322;28;20056;-26
2023/09/05 22:52:42;;;;;;;1.52;1.27;;;;;;;21.41;61.80;96932.88;10449329;28;20414;-26
2023/09/05 22:57:43;;;;;;;2.00;1.42;;;;;;;21.42;61.63;96937.16;10449825;28;20037;-26
2023/09/05 23:02:43;;;;;;;1.98;1.30;;;;;;;21.41;61.71;96942.25;10449364;28;20398;-26
2023/09/05 23:07:44;;;;;;;1.97;1.33;;;;;;;21.41;61.62;96943.06;10449655;28;20033;-26
2023/09/05 23:12:44;;;;;;;2.13;1.33;;;;;;;21.41;61.77;96934.59;10449488;28;20037;-26
2023/09/05 23:17:44;;;;;;;1.50;1.30;;;;;;;21.42;61.47;96951.56;10451349;28;20441;-26
2023/09/05 23:22:46;;;;;;;1.60;1.20;;;;;;;21.40;61.34;96946.47;10460516;28;20040;-26